CheckWX is a tool to help pilots better visualize weather data.  It is not intended as a substitute for an official pre-flight weather briefing.

08:16:35 UTC

KMGC METAR
Michigan City Municipal-Phillips Field Airport
Michigan City, Indiana, USA
Current

22 mins ago

KMGC 220755Z AUTO 00000KT 10SM CLR M03/M06 A3038 RMK AO2
Observed
Feb-22 @ 07:55 UTC
Visibility
10 SM
Flight Rules
VFR
Cloud Levels
  • Clear skies
Temperature
-3°C / 27°F
Dewpoint
-6°C / 21°F
Humidity
80%
Altimeter
30.38" Hg
Pressure
1028.81 hPa
Previous

42 mins ago

KMGC 220735Z AUTO 00000KT 10SM CLR M03/M06 A3038 RMK AO2
Observed
Feb-22 @ 07:35 UTC
Visibility
10 SM
Flight Rules
VFR
Cloud Levels
  • Clear skies
Temperature
-3°C / 27°F
Dewpoint
-6°C / 21°F
Humidity
80%
Altimeter
30.38" Hg
Pressure
1028.81 hPa
Previous

1 hour ago

KMGC 220715Z AUTO 00000KT 10SM CLR M02/M06 A3037 RMK AO2
Observed
Feb-22 @ 07:15 UTC
Visibility
10 SM
Flight Rules
VFR
Cloud Levels
  • Clear skies
Temperature
-2°C / 28°F
Dewpoint
-6°C / 21°F
Humidity
74%
Altimeter
30.37" Hg
Pressure
1028.42 hPa